createdAt,value
2023-07-08T00:00:26.374Z,23.49
2023-07-08T00:02:53.656Z,23.49
2023-07-08T00:05:21.601Z,23.49
2023-07-08T00:07:48.521Z,23.47
2023-07-08T00:10:19.079Z,23.46
2023-07-08T00:12:52.206Z,23.45
2023-07-08T00:15:21.058Z,23.44
2023-07-08T00:17:48.195Z,23.44
2023-07-08T00:20:18.321Z,23.44
2023-07-08T00:22:47.294Z,23.47
2023-07-08T00:25:15.611Z,23.45
2023-07-08T00:27:42.870Z,23.43
2023-07-08T00:30:21.930Z,23.43
2023-07-08T00:32:54.265Z,23.40
2023-07-08T00:35:41.792Z,23.38
2023-07-08T00:38:15.434Z,23.35
2023-07-08T00:40:49.780Z,23.31
2023-07-08T00:43:19.436Z,23.28
2023-07-08T00:46:01.919Z,23.27
2023-07-08T00:48:31.126Z,23.26
2023-07-08T00:50:58.379Z,23.26
2023-07-08T00:53:27.550Z,23.25
2023-07-08T00:55:59.774Z,23.24
2023-07-08T00:58:30.139Z,23.22
2023-07-08T01:00:57.706Z,23.22
2023-07-08T01:03:25.252Z,23.21
2023-07-08T01:05:51.992Z,23.22
2023-07-08T01:08:19.435Z,23.21
2023-07-08T01:10:50.014Z,23.23
2023-07-08T01:13:16.719Z,23.23
2023-07-08T01:15:44.414Z,23.22
2023-07-08T01:18:12.694Z,23.22
2023-07-08T01:20:39.992Z,23.22
2023-07-08T01:23:06.735Z,23.19
2023-07-08T01:25:34.028Z,23.16
2023-07-08T01:28:00.717Z,23.13
2023-07-08T01:30:27.382Z,23.12
2023-07-08T01:33:00.074Z,23.09
2023-07-08T01:35:27.645Z,23.05
2023-07-08T01:37:59.863Z,23.02
2023-07-08T01:40:29.283Z,22.99
2023-07-08T01:42:56.620Z,23.00
2023-07-08T01:45:25.103Z,22.98
2023-07-08T01:48:00.294Z,22.96
2023-07-08T01:50:27.684Z,22.96
2023-07-08T01:52:54.421Z,22.95
2023-07-08T01:55:23.204Z,22.93
2023-07-08T01:57:51.973Z,22.92
2023-07-08T02:00:19.030Z,22.91
2023-07-08T02:02:46.236Z,22.90
2023-07-08T02:05:13.114Z,22.89
2023-07-08T02:07:41.142Z,22.89
2023-07-08T02:10:08.309Z,22.88
2023-07-08T02:12:35.219Z,22.88
2023-07-08T02:15:01.854Z,22.89
2023-07-08T02:17:29.620Z,22.89
2023-07-08T02:19:56.744Z,22.89
2023-07-08T02:22:23.605Z,22.92
2023-07-08T02:24:50.633Z,22.94
2023-07-08T02:27:17.202Z,22.96
2023-07-08T02:29:44.463Z,22.99
2023-07-08T02:32:11.081Z,22.98
2023-07-08T02:34:37.894Z,22.98
2023-07-08T02:37:04.800Z,23.00
2023-07-08T02:39:33.570Z,23.03
2023-07-08T02:42:01.632Z,23.04
2023-07-08T02:44:28.480Z,23.06
2023-07-08T02:46:54.902Z,23.15
2023-07-08T02:49:21.371Z,23.16
2023-07-08T02:51:49.119Z,23.16
2023-07-08T02:54:15.838Z,23.18
2023-07-08T02:56:42.299Z,23.17
2023-07-08T02:59:09.264Z,23.21
2023-07-08T03:01:41.856Z,23.23
2023-07-08T03:04:13.388Z,23.23
2023-07-08T03:06:44.188Z,23.22
2023-07-08T03:09:12.664Z,23.22
2023-07-08T03:11:42.011Z,23.22
2023-07-08T03:14:09.173Z,23.22
2023-07-08T03:16:38.564Z,23.22
2023-07-08T03:19:06.258Z,23.21
2023-07-08T03:21:33.861Z,23.18
2023-07-08T03:24:00.542Z,23.18
2023-07-08T03:26:30.536Z,23.17
2023-07-08T03:28:59.233Z,23.22
2023-07-08T03:31:26.458Z,23.23
2023-07-08T03:33:53.614Z,23.18
2023-07-08T03:36:23.276Z,23.17
2023-07-08T03:38:54.501Z,23.17
2023-07-08T03:41:21.500Z,23.17
2023-07-08T03:43:51.058Z,23.17
2023-07-08T03:46:21.338Z,23.16
2023-07-08T03:48:48.074Z,23.15
2023-07-08T03:51:25.737Z,23.15
2023-07-08T03:53:52.806Z,23.13
2023-07-08T03:56:20.101Z,23.14
2023-07-08T03:58:46.887Z,23.13
2023-07-08T04:01:16.913Z,23.14
2023-07-08T04:03:44.906Z,23.13
2023-07-08T04:06:12.817Z,23.13
2023-07-08T04:08:39.592Z,23.12
2023-07-08T04:11:06.382Z,23.12
2023-07-08T04:13:33.191Z,23.12
2023-07-08T04:16:01.032Z,23.17
2023-07-08T04:18:28.019Z,23.15
2023-07-08T04:23:24.401Z,23.15
2023-07-08T04:25:52.963Z,23.20
2023-07-08T04:28:19.869Z,23.18
2023-07-08T04:30:46.553Z,23.19
2023-07-08T04:33:14.413Z,23.20
2023-07-08T04:35:41.962Z,23.23
2023-07-08T04:38:18.031Z,23.23
2023-07-08T04:40:46.590Z,23.24
2023-07-08T04:43:13.487Z,23.26
2023-07-08T04:45:41.849Z,23.28
2023-07-08T04:48:14.100Z,23.32
2023-07-08T04:50:44.597Z,23.37
2023-07-08T04:53:11.681Z,23.37
2023-07-08T04:55:41.113Z,23.39
2023-07-08T04:58:07.557Z,23.38
2023-07-08T05:00:34.236Z,23.33
2023-07-08T05:03:01.640Z,23.33
2023-07-08T05:05:31.812Z,23.34
2023-07-08T05:07:58.466Z,23.38
2023-07-08T05:10:25.253Z,23.41
2023-07-08T05:12:51.833Z,23.40
2023-07-08T05:15:18.336Z,23.44
2023-07-08T05:17:44.941Z,23.49
2023-07-08T05:20:13.351Z,23.52
2023-07-08T05:22:40.528Z,23.53
2023-07-08T05:25:07.486Z,23.56
2023-07-08T05:27:35.099Z,23.58
2023-07-08T05:30:02.671Z,23.61
2023-07-08T05:32:29.658Z,23.64
2023-07-08T05:34:56.271Z,23.68
2023-07-08T05:37:25.654Z,23.66
2023-07-08T05:39:52.944Z,23.71
2023-07-08T05:42:22.799Z,23.75
2023-07-08T05:44:52.418Z,23.83
2023-07-08T05:47:19.206Z,23.84
2023-07-08T05:49:45.969Z,23.87
2023-07-08T05:52:12.812Z,23.92
2023-07-08T05:54:39.668Z,23.92
2023-07-08T05:57:07.217Z,23.93
2023-07-08T05:59:36.238Z,23.93
2023-07-08T06:02:03.954Z,23.95
2023-07-08T06:04:31.381Z,23.97
2023-07-08T06:06:58.100Z,24.01
2023-07-08T06:09:24.712Z,24.06
2023-07-08T06:11:51.624Z,24.10
2023-07-08T06:14:18.212Z,24.11
2023-07-08T06:16:47.009Z,24.15
2023-07-08T06:19:15.603Z,24.20
2023-07-08T06:21:42.382Z,24.24
2023-07-08T06:24:09.172Z,24.29
2023-07-08T06:26:36.217Z,24.34
2023-07-08T06:29:03.411Z,24.37
2023-07-08T06:31:30.745Z,24.41
2023-07-08T06:33:57.674Z,24.42
2023-07-08T06:36:24.322Z,24.47
2023-07-08T06:38:50.995Z,24.54
2023-07-08T06:41:17.742Z,24.68
2023-07-08T06:43:44.462Z,24.82
2023-07-08T06:46:19.510Z,24.95
2023-07-08T06:48:46.269Z,25.04
2023-07-08T06:51:16.993Z,25.17
2023-07-08T06:53:43.839Z,25.28
2023-07-08T06:56:11.128Z,25.36
2023-07-08T06:58:39.030Z,25.35
2023-07-08T07:01:05.611Z,25.30
2023-07-08T07:03:32.530Z,25.21
2023-07-08T07:05:59.178Z,25.15
2023-07-08T07:08:26.101Z,25.10
2023-07-08T07:10:53.398Z,25.09
2023-07-08T07:13:21.555Z,25.12
2023-07-08T07:15:52.207Z,25.09
2023-07-08T07:18:21.914Z,25.10
2023-07-08T07:20:53.888Z,25.11
2023-07-08T07:23:20.692Z,25.11
2023-07-08T07:25:50.594Z,25.10
2023-07-08T07:28:17.561Z,25.04
2023-07-08T07:30:45.251Z,24.98
2023-07-08T07:33:12.210Z,24.91
2023-07-08T07:35:45.416Z,24.78
2023-07-08T07:38:11.985Z,24.71
2023-07-08T07:40:40.236Z,24.67
2023-07-08T07:43:06.745Z,24.68
2023-07-08T07:45:33.940Z,24.72
2023-07-08T07:48:00.472Z,24.70
2023-07-08T07:50:27.498Z,24.68
2023-07-08T07:52:54.113Z,24.69
2023-07-08T07:55:20.706Z,24.73
2023-07-08T07:57:47.438Z,24.74
2023-07-08T08:00:14.642Z,24.78
2023-07-08T08:02:42.339Z,24.80
2023-07-08T08:05:09.073Z,24.84
2023-07-08T08:07:37.016Z,24.88
2023-07-08T08:10:04.275Z,24.92
2023-07-08T08:12:40.717Z,25.00
2023-07-08T08:15:11.658Z,25.06
2023-07-08T08:17:38.468Z,25.08
2023-07-08T08:20:06.786Z,25.16
2023-07-08T08:22:33.576Z,25.24
2023-07-08T08:25:00.237Z,25.22
2023-07-08T08:27:26.962Z,25.20
2023-07-08T08:29:53.421Z,25.21
2023-07-08T08:32:20.073Z,25.23
2023-07-08T08:34:47.778Z,25.24
2023-07-08T08:37:14.654Z,25.29
2023-07-08T08:39:41.136Z,25.34
2023-07-08T08:42:24.732Z,25.38
2023-07-08T08:44:51.125Z,25.40
2023-07-08T08:47:41.061Z,25.44
2023-07-08T08:50:26.290Z,25.52
2023-07-08T08:52:55.468Z,25.59
2023-07-08T08:55:25.523Z,25.61
2023-07-08T08:58:18.448Z,25.64
2023-07-08T09:00:59.425Z,25.68
2023-07-08T09:03:54.055Z,25.76
2023-07-08T09:06:23.673Z,25.80
2023-07-08T09:08:50.590Z,25.83
2023-07-08T09:11:20.706Z,25.81
2023-07-08T09:13:47.575Z,25.81
2023-07-08T09:16:42.449Z,25.86
2023-07-08T09:19:14.506Z,25.95
2023-07-08T09:21:50.062Z,26.05
2023-07-08T09:24:19.746Z,26.18
2023-07-08T09:26:46.834Z,26.26
2023-07-08T09:29:13.764Z,26.33
2023-07-08T09:31:42.560Z,26.37
2023-07-08T09:34:12.737Z,26.35
2023-07-08T09:36:41.943Z,26.34
2023-07-08T09:39:18.449Z,26.37
2023-07-08T09:41:45.916Z,26.39
2023-07-08T09:44:30.529Z,26.46
2023-07-08T09:46:58.877Z,26.54
2023-07-08T09:49:37.630Z,26.61
2023-07-08T09:52:04.872Z,26.62
2023-07-08T09:54:33.059Z,26.59
2023-07-08T09:57:26.254Z,26.55
2023-07-08T10:00:03.165Z,26.52
2023-07-08T10:02:50.458Z,26.51
2023-07-08T10:05:44.264Z,26.51
2023-07-08T10:08:22.038Z,26.49
2023-07-08T10:11:09.637Z,26.50
2023-07-08T10:14:00.659Z,26.57
2023-07-08T10:16:35.756Z,26.63
2023-07-08T10:19:05.272Z,26.63
2023-07-08T10:21:56.509Z,26.62
2023-07-08T10:24:29.226Z,26.67
2023-07-08T10:27:19.800Z,26.67
2023-07-08T10:30:17.573Z,26.65
2023-07-08T10:32:54.729Z,26.63
2023-07-08T10:35:26.093Z,26.56
2023-07-08T10:38:04.924Z,26.44
2023-07-08T10:40:35.985Z,26.35
2023-07-08T10:43:27.600Z,26.22
2023-07-08T10:46:17.038Z,26.10
2023-07-08T10:49:00.189Z,26.03
2023-07-08T10:51:39.502Z,25.98
2023-07-08T10:54:13.903Z,25.91
2023-07-08T10:57:03.645Z,25.86
2023-07-08T10:59:35.049Z,25.81
2023-07-08T11:02:25.752Z,25.74
2023-07-08T11:05:07.249Z,25.67
2023-07-08T11:07:42.470Z,25.58
2023-07-08T11:10:30.119Z,25.52
2023-07-08T11:13:03.760Z,25.47
2023-07-08T11:15:47.371Z,25.44
2023-07-08T11:18:17.612Z,25.43
2023-07-08T11:20:56.005Z,25.45
2023-07-08T11:23:27.432Z,25.41
2023-07-08T11:26:00.028Z,25.37
2023-07-08T11:28:26.685Z,25.35
2023-07-08T11:30:53.388Z,25.33
2023-07-08T11:33:22.210Z,25.33
2023-07-08T11:35:50.797Z,25.32
2023-07-08T11:38:20.774Z,25.31
2023-07-08T11:41:01.903Z,25.31
2023-07-08T11:43:45.185Z,25.32
2023-07-08T11:46:19.747Z,25.36
2023-07-08T11:48:48.536Z,25.34
2023-07-08T11:51:22.495Z,25.31
2023-07-08T11:54:04.270Z,25.25
2023-07-08T11:56:51.579Z,25.22
2023-07-08T11:59:19.229Z,25.17
2023-07-08T12:01:48.840Z,25.11
2023-07-08T12:04:17.694Z,25.06
2023-07-08T12:06:49.441Z,25.01
2023-07-08T12:09:28.545Z,24.95
2023-07-08T12:12:00.538Z,24.89
2023-07-08T12:14:27.932Z,24.84
2023-07-08T12:16:54.997Z,24.82
2023-07-08T12:19:22.474Z,24.79
2023-07-08T12:21:51.067Z,24.74
2023-07-08T12:24:18.897Z,24.71
2023-07-08T12:26:45.713Z,24.66
2023-07-08T12:29:13.938Z,24.62
2023-07-08T12:31:43.192Z,24.59
2023-07-08T12:34:15.432Z,24.58
2023-07-08T12:36:42.277Z,24.58
2023-07-08T12:39:11.386Z,24.60
2023-07-08T12:41:39.634Z,24.63
2023-07-08T12:44:14.550Z,24.69
2023-07-08T12:46:41.312Z,24.72
2023-07-08T12:49:09.195Z,24.75
2023-07-08T12:51:36.621Z,24.79
2023-07-08T12:54:03.289Z,24.81
2023-07-08T12:56:32.553Z,24.78
2023-07-08T12:59:00.026Z,24.75
2023-07-08T13:01:29.438Z,24.74
2023-07-08T13:04:01.032Z,24.76
2023-07-08T13:06:30.080Z,24.77
2023-07-08T13:09:02.974Z,24.75
2023-07-08T13:11:29.667Z,24.69
2023-07-08T13:14:04.209Z,24.65
2023-07-08T13:16:34.275Z,24.64
2023-07-08T13:19:01.243Z,24.66
2023-07-08T13:21:28.252Z,24.67
2023-07-08T13:23:55.070Z,24.71
2023-07-08T13:26:22.806Z,24.71
2023-07-08T13:28:50.126Z,24.72
2023-07-08T13:31:24.937Z,24.75
2023-07-08T13:33:53.734Z,24.74
2023-07-08T13:36:34.493Z,24.74
2023-07-08T13:39:07.416Z,24.70
2023-07-08T13:41:35.667Z,24.66
2023-07-08T13:44:06.633Z,24.64
2023-07-08T13:46:36.902Z,24.64
2023-07-08T13:49:22.935Z,24.60
2023-07-08T13:51:49.504Z,24.54
2023-07-08T13:54:21.056Z,24.51
2023-07-08T13:56:48.093Z,24.47
2023-07-08T13:59:24.654Z,24.44
2023-07-08T14:01:53.855Z,24.39
2023-07-08T14:04:27.915Z,24.34
2023-07-08T14:06:54.388Z,24.33
2023-07-08T14:09:22.470Z,24.32
2023-07-08T14:11:50.075Z,24.29
2023-07-08T14:14:16.999Z,24.25
2023-07-08T14:16:45.585Z,24.21
2023-07-08T14:19:18.384Z,24.20
2023-07-08T14:21:45.440Z,24.18
2023-07-08T14:24:13.545Z,24.17
2023-07-08T14:26:43.072Z,24.15
2023-07-08T14:29:09.962Z,24.12
2023-07-08T14:31:36.850Z,24.06
2023-07-08T14:34:13.921Z,24.00
2023-07-08T14:36:42.400Z,23.96
2023-07-08T14:39:13.975Z,23.94
2023-07-08T14:41:42.073Z,23.91
2023-07-08T14:44:22.373Z,23.86
2023-07-08T14:46:50.565Z,23.82
2023-07-08T14:49:21.597Z,23.81
2023-07-08T14:51:48.943Z,23.79
2023-07-08T14:54:15.539Z,23.77
2023-07-08T14:56:44.063Z,23.75
2023-07-08T14:59:16.526Z,23.74
2023-07-08T15:01:43.998Z,23.73
2023-07-08T15:04:11.689Z,23.74
2023-07-08T15:06:41.792Z,23.74
2023-07-08T15:09:09.076Z,23.72
2023-07-08T15:11:38.573Z,23.70
2023-07-08T15:14:07.008Z,23.68
2023-07-08T15:16:33.566Z,23.68
2023-07-08T15:19:00.553Z,23.74
2023-07-08T15:21:27.922Z,23.84
2023-07-08T15:23:55.102Z,24.02
2023-07-08T15:26:21.817Z,24.24
2023-07-08T15:28:51.904Z,24.41
2023-07-08T15:31:20.948Z,24.52
2023-07-08T15:33:47.905Z,24.58
2023-07-08T15:36:14.532Z,24.65
2023-07-08T15:38:44.057Z,24.68
2023-07-08T15:41:19.470Z,24.72
2023-07-08T15:43:46.613Z,24.71
2023-07-08T15:46:13.318Z,24.71
2023-07-08T15:48:40.286Z,24.73
2023-07-08T15:51:08.282Z,24.74
2023-07-08T15:53:35.057Z,24.71
2023-07-08T15:56:01.528Z,24.68
2023-07-08T15:58:32.480Z,24.66
2023-07-08T16:01:00.299Z,24.65
2023-07-08T16:03:31.087Z,24.66
2023-07-08T16:05:58.354Z,24.70
2023-07-08T16:08:26.506Z,24.76
2023-07-08T16:11:02.646Z,24.79
2023-07-08T16:13:32.325Z,24.80
2023-07-08T16:16:02.417Z,24.81
2023-07-08T16:18:30.058Z,24.79
2023-07-08T16:20:56.713Z,24.76
2023-07-08T16:23:24.792Z,24.72
2023-07-08T16:25:51.937Z,24.72
2023-07-08T16:28:34.743Z,24.72
2023-07-08T16:31:01.953Z,24.70
2023-07-08T16:33:29.258Z,24.66
2023-07-08T16:35:55.817Z,24.60
2023-07-08T16:38:23.545Z,24.55
2023-07-08T16:40:51.346Z,24.50
2023-07-08T16:43:26.969Z,24.45
2023-07-08T16:45:53.606Z,24.42
2023-07-08T16:48:21.372Z,24.39
2023-07-08T16:50:48.180Z,24.35
2023-07-08T16:53:14.816Z,24.33
2023-07-08T16:55:41.695Z,24.31
2023-07-08T16:58:14.439Z,24.30
2023-07-08T17:00:51.833Z,24.27
2023-07-08T17:03:18.432Z,24.26
2023-07-08T17:05:45.444Z,24.24
2023-07-08T17:08:13.465Z,24.20
2023-07-08T17:10:40.466Z,24.16
2023-07-08T17:13:06.933Z,24.13
2023-07-08T17:15:33.628Z,24.11
2023-07-08T17:18:01.979Z,24.09
2023-07-08T17:20:38.193Z,24.08
2023-07-08T17:23:10.943Z,24.07
2023-07-08T17:25:37.619Z,24.04
2023-07-08T17:28:04.253Z,24.02
2023-07-08T17:30:31.180Z,24.00
2023-07-08T17:32:58.547Z,24.01
2023-07-08T17:35:26.074Z,24.00
2023-07-08T17:37:53.125Z,23.98
2023-07-08T17:40:23.441Z,23.96
2023-07-08T17:42:52.612Z,23.96
2023-07-08T17:45:25.286Z,23.95
2023-07-08T17:47:52.392Z,23.94
2023-07-08T17:50:24.083Z,23.92
2023-07-08T17:52:52.518Z,23.90
2023-07-08T17:55:19.583Z,23.87
2023-07-08T17:57:48.855Z,23.85
2023-07-08T18:00:21.552Z,23.82
2023-07-08T18:02:48.210Z,23.78
2023-07-08T18:05:16.958Z,23.75
2023-07-08T18:07:44.761Z,23.72
2023-07-08T18:10:12.863Z,23.68
2023-07-08T18:12:39.736Z,23.65
2023-07-08T18:15:21.567Z,23.63
2023-07-08T18:17:52.889Z,23.61
2023-07-08T18:20:20.121Z,23.60
2023-07-08T18:22:49.169Z,23.58
2023-07-08T18:25:25.086Z,23.55
2023-07-08T18:27:52.221Z,23.54
2023-07-08T18:30:20.117Z,23.55
2023-07-08T18:32:49.328Z,23.55
2023-07-08T18:35:23.356Z,23.54
2023-07-08T18:37:50.776Z,23.56
2023-07-08T18:40:31.838Z,23.55
2023-07-08T18:43:04.900Z,23.56
2023-07-08T18:45:31.880Z,23.57
2023-07-08T18:47:58.971Z,23.56
2023-07-08T18:50:25.728Z,23.56
2023-07-08T18:52:53.864Z,23.55
2023-07-08T18:55:22.170Z,23.52
2023-07-08T18:57:48.711Z,23.49
2023-07-08T19:00:17.694Z,23.46
2023-07-08T19:02:55.787Z,23.44
2023-07-08T19:05:22.739Z,23.42
2023-07-08T19:07:49.738Z,23.38
2023-07-08T19:10:16.832Z,23.34
2023-07-08T19:12:48.098Z,23.31
2023-07-08T19:15:28.989Z,23.27
2023-07-08T19:17:56.566Z,23.25
2023-07-08T19:20:38.826Z,23.23
2023-07-08T19:23:07.770Z,23.21
2023-07-08T19:25:34.529Z,23.18
2023-07-08T19:28:01.165Z,23.14
2023-07-08T19:30:28.165Z,23.11
2023-07-08T19:32:56.460Z,23.06
2023-07-08T19:35:24.790Z,23.02
2023-07-08T19:37:52.231Z,22.98
2023-07-08T19:40:20.441Z,22.96
2023-07-08T19:42:48.500Z,22.92
2023-07-08T19:45:25.959Z,22.89
2023-07-08T19:47:53.577Z,22.88
2023-07-08T19:50:22.137Z,22.86
2023-07-08T19:52:49.396Z,22.83
2023-07-08T19:55:16.008Z,22.81
2023-07-08T19:57:52.311Z,22.81
2023-07-08T20:00:22.080Z,22.80
2023-07-08T20:02:50.168Z,22.78
2023-07-08T20:05:17.962Z,22.76
2023-07-08T20:07:45.482Z,22.74
2023-07-08T20:10:14.296Z,22.72
2023-07-08T20:12:41.822Z,22.71
2023-07-08T20:15:09.304Z,22.70
2023-07-08T20:17:36.478Z,22.67
2023-07-08T20:20:03.573Z,22.65
2023-07-08T20:22:32.273Z,22.65
2023-07-08T20:25:00.528Z,22.65
2023-07-08T20:27:27.609Z,22.64
2023-07-08T20:29:55.284Z,22.64
2023-07-08T20:32:21.725Z,22.63
2023-07-08T20:34:48.425Z,22.64
2023-07-08T20:37:15.372Z,22.64
2023-07-08T20:39:42.385Z,22.63
2023-07-08T20:42:12.987Z,22.61
2023-07-08T20:44:41.180Z,22.60
2023-07-08T20:47:15.500Z,22.63
2023-07-08T20:49:42.576Z,22.65
2023-07-08T20:52:12.506Z,22.64
2023-07-08T20:54:39.473Z,22.64
2023-07-08T20:57:11.551Z,22.63
2023-07-08T20:59:38.356Z,22.63
2023-07-08T21:02:23.064Z,22.65
2023-07-08T21:04:50.716Z,22.66
2023-07-08T21:07:17.662Z,22.65
2023-07-08T21:09:44.537Z,22.65
2023-07-08T21:12:11.543Z,22.65
2023-07-08T21:14:39.064Z,22.66
2023-07-08T21:17:26.030Z,22.64
2023-07-08T21:19:53.020Z,22.66
2023-07-08T21:22:19.684Z,22.67
2023-07-08T21:24:46.164Z,22.65
2023-07-08T21:27:20.501Z,22.64
2023-07-08T21:29:47.154Z,22.64
2023-07-08T21:32:13.933Z,22.62
2023-07-08T21:34:41.352Z,22.63
2023-07-08T21:37:09.782Z,22.62
2023-07-08T21:39:37.194Z,22.60
2023-07-08T21:42:06.061Z,22.58
2023-07-08T21:44:32.550Z,22.56
2023-07-08T21:46:59.120Z,22.54
2023-07-08T21:49:25.541Z,22.54
2023-07-08T21:51:52.397Z,22.53
2023-07-08T21:54:18.873Z,22.52
2023-07-08T21:56:45.345Z,22.52
2023-07-08T21:59:16.411Z,22.53
2023-07-08T22:01:43.065Z,22.55
2023-07-08T22:04:11.925Z,22.54
2023-07-08T22:06:39.693Z,22.53
2023-07-08T22:09:06.834Z,22.52
2023-07-08T22:11:35.149Z,22.50
2023-07-08T22:14:02.357Z,22.49
2023-07-08T22:16:30.518Z,22.48
2023-07-08T22:18:57.746Z,22.49
2023-07-08T22:21:28.723Z,22.50
2023-07-08T22:24:03.113Z,22.49
2023-07-08T22:26:30.866Z,22.48
2023-07-08T22:28:57.624Z,22.48
2023-07-08T22:31:26.781Z,22.49
2023-07-08T22:33:53.539Z,22.47
2023-07-08T22:36:20.276Z,22.47
2023-07-08T22:38:47.135Z,22.46
2023-07-08T22:41:13.913Z,22.45
2023-07-08T22:43:40.936Z,22.43
2023-07-08T22:46:08.929Z,22.41
2023-07-08T22:48:37.825Z,22.41
2023-07-08T22:51:04.262Z,22.42
2023-07-08T22:53:32.847Z,22.41
2023-07-08T22:55:59.834Z,22.41
2023-07-08T22:58:30.425Z,22.41
2023-07-08T23:00:57.258Z,22.40
2023-07-08T23:03:23.985Z,22.39
2023-07-08T23:05:52.254Z,22.38
2023-07-08T23:08:42.311Z,22.37
2023-07-08T23:11:12.173Z,22.37
2023-07-08T23:13:40.651Z,22.35
2023-07-08T23:16:16.500Z,22.32
2023-07-08T23:18:44.032Z,22.33
2023-07-08T23:21:10.765Z,22.34
2023-07-08T23:23:40.037Z,22.35
2023-07-08T23:26:14.416Z,22.34
2023-07-08T23:28:40.848Z,22.33
2023-07-08T23:31:09.761Z,22.33
2023-07-08T23:33:37.236Z,22.32
2023-07-08T23:36:05.785Z,22.31
2023-07-08T23:38:33.198Z,22.30
2023-07-08T23:40:59.844Z,22.29
2023-07-08T23:43:28.255Z,22.31
2023-07-08T23:45:56.409Z,22.30
2023-07-08T23:48:23.260Z,22.30
2023-07-08T23:50:50.023Z,22.27
2023-07-08T23:53:17.304Z,22.26
2023-07-08T23:55:47.034Z,22.24
2023-07-08T23:58:24.488Z,22.24
